Terminal Aerodrome Forecast
Issued by NWS

Current Version | Previous Version | Text Only | Print | Product List | Glossary On
Versions: 1 2 3 4 5 6 7 8 9 10 11 12 13 14 15 16 17 18 19 20 21 22 23 24 25 26 27 28 29 30 31 32 33 34 35 36 37 38 39 40 41 42 43 44 45 46 47 48 49 50
000
FTUS41 KCTP 182338
TAFUNV
TAF
KUNV 182338Z 1900/1924 34009KT P6SM SCT250
     FM190200 02007KT P6SM SCT250
     FM190900 07003KT P6SM BKN250
     FM191530 12010G18KT P6SM SCT040 OVC200
     FM192300 13013G25KT P6SM BKN040 OVC100=

USA.gov is the U.S. government's official web portal to all federal, state and local government web resources and services.